createdAt,value
2019-03-01T00:00:21.826Z,91.90
2019-03-01T00:02:52.947Z,92.50
2019-03-01T00:05:57.962Z,92.20
2019-03-01T00:08:50.615Z,92.20
2019-03-01T00:11:41.379Z,92.20
2019-03-01T00:14:42.412Z,92.30
2019-03-01T00:18:05.007Z,92.10
2019-03-01T00:21:04.990Z,92.10
2019-03-01T00:23:55.849Z,92.30
2019-03-01T00:26:46.028Z,92.30
2019-03-01T00:29:41.074Z,92.10
2019-03-01T00:32:43.785Z,92.10
2019-03-01T00:35:30.897Z,92.60
2019-03-01T00:38:31.962Z,92.10
2019-03-01T00:41:28.899Z,92.00
2019-03-01T00:44:44.179Z,92.50
2019-03-01T00:47:13.875Z,91.90
2019-03-01T00:49:43.230Z,91.60
2019-03-01T00:52:13.292Z,92.00
2019-03-01T00:54:42.703Z,91.40
2019-03-01T00:57:12.229Z,90.80
2019-03-01T00:59:41.648Z,90.80
2019-03-01T01:02:11.055Z,90.30
2019-03-01T01:04:40.386Z,90.80
2019-03-01T01:07:09.722Z,90.80
2019-03-01T01:09:39.061Z,90.30
2019-03-01T01:12:08.464Z,90.30
2019-03-01T01:14:37.795Z,90.30
2019-03-01T01:17:07.114Z,90.30
2019-03-01T01:19:36.452Z,90.30
2019-03-01T01:22:05.853Z,90.20
2019-03-01T01:24:35.186Z,90.20
2019-03-01T01:27:04.512Z,88.30
2019-03-01T01:29:33.925Z,89.70
2019-03-01T01:32:03.255Z,89.00
2019-03-01T01:34:32.598Z,88.40
2019-03-01T01:37:01.937Z,87.70
2019-03-01T01:39:31.266Z,87.50
2019-03-01T01:42:00.618Z,88.50
2019-03-01T01:44:29.956Z,89.10
2019-03-01T01:46:59.291Z,88.40
2019-03-01T01:49:28.634Z,88.40
2019-03-01T01:51:57.964Z,87.30
2019-03-01T01:54:27.298Z,88.40
2019-03-01T01:56:56.634Z,86.10
2019-03-01T01:59:25.967Z,87.00
2019-03-01T02:01:55.290Z,87.20
2019-03-01T02:04:24.623Z,86.90
2019-03-01T02:06:53.966Z,86.50
2019-03-01T02:09:26.753Z,87.30
2019-03-01T02:11:57.071Z,87.90
2019-03-01T02:14:26.481Z,87.10
2019-03-01T02:16:55.799Z,88.20
2019-03-01T02:19:25.120Z,88.00
2019-03-01T02:21:54.526Z,86.50
2019-03-01T02:24:23.847Z,85.50
2019-03-01T02:27:21.208Z,86.70
2019-03-01T02:29:50.547Z,84.50
2019-03-01T02:32:41.327Z,84.10
2019-03-01T02:35:12.697Z,84.30
2019-03-01T02:37:42.130Z,85.00
2019-03-01T02:40:13.964Z,84.80
2019-03-01T02:42:43.446Z,85.50
2019-03-01T02:45:15.097Z,84.80
2019-03-01T02:47:44.431Z,84.00
2019-03-01T02:50:14.599Z,85.80
2019-03-01T02:52:43.935Z,84.30
2019-03-01T02:55:14.963Z,85.30
2019-03-01T02:57:44.361Z,84.70
2019-03-01T03:00:24.383Z,84.70
2019-03-01T03:02:53.812Z,84.40
2019-03-01T03:05:23.219Z,83.90
2019-03-01T03:08:01.376Z,84.10
2019-03-01T03:10:30.740Z,84.60
2019-03-01T03:13:02.487Z,84.50
2019-03-01T03:15:50.766Z,84.30
2019-03-01T03:18:20.373Z,84.90
2019-03-01T03:20:49.801Z,83.70
2019-03-01T03:23:19.188Z,84.50
2019-03-01T03:25:48.724Z,84.50
2019-03-01T03:28:18.053Z,84.00
2019-03-01T03:30:47.391Z,84.90
2019-03-01T03:33:17.049Z,85.00
2019-03-01T03:35:46.888Z,83.70
2019-03-01T03:38:16.220Z,84.30
2019-03-01T03:40:45.658Z,84.50
2019-03-01T03:43:14.997Z,84.50
2019-03-01T03:45:44.426Z,84.50
2019-03-01T03:48:14.071Z,84.90
2019-03-01T03:50:43.444Z,85.60
2019-03-01T03:53:12.779Z,86.60
2019-03-01T03:55:42.170Z,86.40
2019-03-01T03:58:11.618Z,86.20
2019-03-01T04:00:41.015Z,86.20
2019-03-01T04:03:10.420Z,86.20
2019-03-01T04:05:39.759Z,86.50
2019-03-01T04:08:09.354Z,85.90
2019-03-01T04:10:38.695Z,85.50
2019-03-01T04:13:08.031Z,86.10
2019-03-01T04:15:37.663Z,86.70
2019-03-01T04:18:07.007Z,87.00
2019-03-01T04:20:36.340Z,86.70
2019-03-01T04:23:05.680Z,86.70
2019-03-01T04:25:35.008Z,87.30
2019-03-01T04:28:04.817Z,86.70
2019-03-01T04:30:34.347Z,86.80
2019-03-01T04:33:03.761Z,87.80
2019-03-01T04:35:33.106Z,86.80
2019-03-01T04:38:02.434Z,87.20
2019-03-01T04:40:32.034Z,86.90
2019-03-01T04:43:01.368Z,88.20
2019-03-01T04:45:30.815Z,88.00
2019-03-01T04:48:00.158Z,87.90
2019-03-01T04:50:29.788Z,87.70
2019-03-01T04:52:59.142Z,88.60
2019-03-01T04:55:28.795Z,88.10
2019-03-01T04:57:58.125Z,88.40
2019-03-01T05:00:27.455Z,88.50
2019-03-01T05:02:56.788Z,89.20
2019-03-01T05:05:26.126Z,88.80
2019-03-01T05:07:55.464Z,89.20
2019-03-01T05:10:24.862Z,90.20
2019-03-01T05:12:54.194Z,90.10
2019-03-01T05:15:24.018Z,90.00
2019-03-01T05:17:53.352Z,90.00
2019-03-01T05:20:23.190Z,90.10
2019-03-01T05:22:52.526Z,90.30
2019-03-01T05:25:21.883Z,90.30
2019-03-01T05:27:51.203Z,90.20
2019-03-01T05:30:20.566Z,90.10
2019-03-01T05:32:50.299Z,90.00
2019-03-01T05:35:19.629Z,90.20
2019-03-01T05:37:49.074Z,90.20
2019-03-01T05:40:18.481Z,90.30
2019-03-01T05:42:47.810Z,90.30
2019-03-01T05:45:19.904Z,90.30
2019-03-01T05:47:49.235Z,90.60
2019-03-01T05:50:18.572Z,90.60
2019-03-01T05:52:48.090Z,90.80
2019-03-01T05:55:17.971Z,90.70
2019-03-01T05:58:23.051Z,91.00
2019-03-01T06:00:53.003Z,91.30
2019-03-01T06:03:46.767Z,91.00
2019-03-01T06:06:19.038Z,91.10
2019-03-01T06:09:17.998Z,91.60
2019-03-01T06:12:37.479Z,91.20
2019-03-01T06:15:46.047Z,91.40
2019-03-01T06:19:09.242Z,91.60
2019-03-01T06:22:03.978Z,91.30
2019-03-01T06:25:09.778Z,91.60
2019-03-01T06:28:13.462Z,91.60
2019-03-01T06:31:07.902Z,91.50
2019-03-01T06:34:12.419Z,91.30
2019-03-01T06:36:56.510Z,91.30
2019-03-01T06:40:12.791Z,91.40
2019-03-01T06:43:32.063Z,91.50
2019-03-01T06:46:16.452Z,91.50
2019-03-01T06:48:59.422Z,90.80
2019-03-01T06:51:32.283Z,90.80
2019-03-01T06:54:01.622Z,90.70
2019-03-01T06:56:31.042Z,91.10
2019-03-01T06:59:05.663Z,91.40
2019-03-01T07:01:45.886Z,91.10
2019-03-01T07:04:16.920Z,91.00
2019-03-01T07:06:46.334Z,90.60
2019-03-01T07:09:15.675Z,91.00
2019-03-01T07:11:45.008Z,90.90
2019-03-01T07:14:14.351Z,90.80
2019-03-01T07:16:43.710Z,90.80
2019-03-01T07:19:13.247Z,90.90
2019-03-01T07:21:42.902Z,90.70
2019-03-01T07:24:12.279Z,90.90
2019-03-01T07:26:41.962Z,91.00
2019-03-01T07:29:11.294Z,90.70
2019-03-01T07:31:40.614Z,90.60
2019-03-01T07:34:09.961Z,91.10
2019-03-01T07:36:39.297Z,90.60
2019-03-01T07:39:10.442Z,90.30
2019-03-01T07:41:39.779Z,90.50
2019-03-01T07:44:09.110Z,90.30
2019-03-01T07:46:38.548Z,89.20
2019-03-01T07:49:07.967Z,89.40
2019-03-01T07:51:37.312Z,89.10
2019-03-01T07:54:06.712Z,90.20
2019-03-01T07:56:37.029Z,88.80
2019-03-01T07:59:07.122Z,89.40
2019-03-01T08:01:36.440Z,89.20
2019-03-01T08:04:05.767Z,85.30
2019-03-01T08:06:35.096Z,80.80
2019-03-01T08:09:05.910Z,78.20
2019-03-01T08:11:35.258Z,78.70
2019-03-01T08:14:04.648Z,79.10
2019-03-01T08:16:33.982Z,79.30
2019-03-01T08:19:03.317Z,78.10
2019-03-01T08:21:32.643Z,78.80
2019-03-01T08:24:01.987Z,79.80
2019-03-01T08:26:34.047Z,79.00
2019-03-01T08:29:02.584Z,78.10
2019-03-01T08:31:31.891Z,75.90
2019-03-01T08:34:01.315Z,76.10
2019-03-01T08:36:30.917Z,76.90
2019-03-01T08:39:00.994Z,75.80
2019-03-01T08:41:31.730Z,72.80
2019-03-01T08:44:01.055Z,72.90
2019-03-01T08:46:30.479Z,72.60
2019-03-01T08:48:59.806Z,71.40
2019-03-01T08:51:29.287Z,71.90
2019-03-01T08:53:58.631Z,71.00
2019-03-01T08:56:28.027Z,70.00
2019-03-01T08:58:57.356Z,70.60
2019-03-01T09:01:27.149Z,69.70
2019-03-01T09:04:02.628Z,67.90
2019-03-01T09:06:32.006Z,69.10
2019-03-01T09:09:01.413Z,69.20
2019-03-01T09:11:30.775Z,68.00
2019-03-01T09:14:00.191Z,67.70
2019-03-01T09:16:29.518Z,66.30
2019-03-01T09:18:58.850Z,64.70
2019-03-01T09:21:28.268Z,66.50
2019-03-01T09:23:58.427Z,66.20
2019-03-01T09:26:27.896Z,65.20
2019-03-01T09:28:57.488Z,64.80
2019-03-01T09:31:26.811Z,67.30
2019-03-01T09:33:56.567Z,65.20
2019-03-01T09:36:31.155Z,66.10
2019-03-01T09:39:00.702Z,66.90
2019-03-01T09:41:30.339Z,65.50
2019-03-01T09:44:02.724Z,62.70
2019-03-01T09:46:30.719Z,63.30
2019-03-01T09:49:00.064Z,63.60
2019-03-01T09:51:29.395Z,64.40
2019-03-01T09:53:58.726Z,62.90
2019-03-01T09:56:28.064Z,63.20
2019-03-01T09:58:57.411Z,63.90
2019-03-01T10:01:26.805Z,62.30
2019-03-01T10:03:56.440Z,62.60
2019-03-01T10:06:26.002Z,61.30
2019-03-01T10:08:55.326Z,61.60
2019-03-01T10:11:24.655Z,62.70
2019-03-01T10:13:53.984Z,61.80
2019-03-01T10:16:23.313Z,62.20
2019-03-01T10:18:52.663Z,62.30
2019-03-01T10:21:22.063Z,60.20
2019-03-01T10:23:51.638Z,60.20
2019-03-01T10:26:21.371Z,59.60
2019-03-01T10:28:50.703Z,59.50
2019-03-01T10:31:20.897Z,59.30
2019-03-01T10:33:50.218Z,59.30
2019-03-01T10:36:19.556Z,60.50
2019-03-01T10:38:48.948Z,59.50
2019-03-01T10:41:18.275Z,58.50
2019-03-01T10:43:47.616Z,57.80
2019-03-01T10:46:17.023Z,58.80
2019-03-01T10:48:46.356Z,59.40
2019-03-01T10:51:15.683Z,59.30
2019-03-01T10:53:45.018Z,58.90
2019-03-01T10:56:14.339Z,58.50
2019-03-01T10:58:43.675Z,59.60
2019-03-01T11:01:13.211Z,59.70
2019-03-01T11:03:42.778Z,59.60
2019-03-01T11:06:12.615Z,59.60
2019-03-01T11:08:42.194Z,58.80
2019-03-01T11:11:11.535Z,58.90
2019-03-01T11:13:41.039Z,59.50
2019-03-01T11:16:10.571Z,58.80
2019-03-01T11:18:40.064Z,59.00
2019-03-01T11:21:09.511Z,57.70
2019-03-01T11:23:39.082Z,57.60
2019-03-01T11:26:08.415Z,56.40
2019-03-01T11:28:37.752Z,56.10
2019-03-01T11:31:07.159Z,56.40
2019-03-01T11:33:36.487Z,54.90
2019-03-01T11:36:05.899Z,55.40
2019-03-01T11:38:35.299Z,54.20
2019-03-01T11:41:05.135Z,54.70
2019-03-01T11:43:34.467Z,54.70
2019-03-01T11:46:04.098Z,53.90
2019-03-01T11:48:33.435Z,53.30
2019-03-01T11:51:02.822Z,53.80
2019-03-01T11:53:32.151Z,53.50
2019-03-01T11:56:01.500Z,50.70
2019-03-01T11:58:30.826Z,50.90
2019-03-01T12:01:00.162Z,52.40
2019-03-01T12:03:29.489Z,51.40
2019-03-01T12:05:59.034Z,52.50
2019-03-01T12:08:28.370Z,52.70
2019-03-01T12:10:57.690Z,52.30
2019-03-01T12:13:27.029Z,52.70
2019-03-01T12:15:56.355Z,53.70
2019-03-01T12:18:25.763Z,53.70
2019-03-01T12:20:55.102Z,50.80
2019-03-01T12:23:24.438Z,50.80
2019-03-01T12:25:53.770Z,51.60
2019-03-01T12:28:23.203Z,51.20
2019-03-01T12:30:52.587Z,53.10
2019-03-01T12:33:21.923Z,53.70
2019-03-01T12:35:51.329Z,54.00
2019-03-01T13:13:08.349Z,46.10
2019-03-01T13:15:38.132Z,47.30
2019-03-01T13:18:10.307Z,48.80
2019-03-01T13:20:38.771Z,48.90
2019-03-01T13:23:08.099Z,48.00
2019-03-01T13:25:37.422Z,47.00
2019-03-01T16:07:38.619Z,64.50
2019-03-01T16:10:09.225Z,65.30
2019-03-01T16:12:38.612Z,65.70
2019-03-01T16:15:10.683Z,66.20
2019-03-01T16:17:40.016Z,66.60
2019-03-01T16:20:13.593Z,67.10
2019-03-01T16:22:42.922Z,66.90
2019-03-01T16:25:13.073Z,67.60
2019-03-01T16:27:42.394Z,68.00
2019-03-01T16:30:14.599Z,68.70
2019-03-01T16:32:49.760Z,69.40
2019-03-01T16:35:16.794Z,70.00
2019-03-01T16:37:48.887Z,70.60
2019-03-01T16:40:19.018Z,70.90
2019-03-01T16:42:53.039Z,71.30
2019-03-01T16:45:21.116Z,72.50
2019-03-01T16:47:51.270Z,73.50
2019-03-01T16:50:20.610Z,73.30
2019-03-01T16:52:49.935Z,73.30
2019-03-01T16:55:19.304Z,73.80
2019-03-01T16:57:52.311Z,73.50
2019-03-01T17:00:19.994Z,73.20
2019-03-01T17:02:49.555Z,72.20
2019-03-01T17:05:18.890Z,72.50
2019-03-01T17:07:48.230Z,73.10
2019-03-01T17:10:18.575Z,73.40
2019-03-01T17:12:48.810Z,73.60
2019-03-01T17:15:19.906Z,74.30
2019-03-01T17:17:49.639Z,74.70
2019-03-01T17:20:19.463Z,74.10
2019-03-01T17:22:48.796Z,74.20
2019-03-01T17:25:19.505Z,74.70
2019-03-01T17:27:49.665Z,74.80
2019-03-01T17:30:20.154Z,75.20
2019-03-01T17:32:49.744Z,75.40
2019-03-01T17:35:19.059Z,75.80
2019-03-01T17:37:48.635Z,76.00
2019-03-01T17:40:17.986Z,76.00
2019-03-01T17:42:47.539Z,76.20
2019-03-01T17:45:21.178Z,76.90
2019-03-01T17:47:48.947Z,77.20
2019-03-01T17:50:18.374Z,77.40
2019-03-01T17:52:47.715Z,78.20
2019-03-01T17:55:17.687Z,79.10
2019-03-01T17:57:47.012Z,79.60
2019-03-01T18:00:25.401Z,79.80
2019-03-01T18:02:53.296Z,79.90
2019-03-01T18:05:22.924Z,80.40
2019-03-01T18:07:52.561Z,81.30
2019-03-01T18:10:22.150Z,81.40
2019-03-01T18:12:53.108Z,81.80
2019-03-01T18:15:23.491Z,82.30
2019-03-01T18:17:52.998Z,82.20
2019-03-01T18:20:22.394Z,82.00
2019-03-01T18:22:51.706Z,81.80
2019-03-01T18:25:22.779Z,81.10
2019-03-01T18:27:53.033Z,81.70
2019-03-01T18:30:23.190Z,81.30
2019-03-01T18:32:52.523Z,81.80
2019-03-01T18:35:21.837Z,81.70
2019-03-01T18:37:54.490Z,81.70
2019-03-01T18:40:22.191Z,81.50
2019-03-01T18:42:51.519Z,81.30
2019-03-01T18:45:20.938Z,82.10
2019-03-01T18:47:50.274Z,82.70
2019-03-01T18:50:22.337Z,83.50
2019-03-01T18:52:53.129Z,83.80
2019-03-01T18:55:23.012Z,84.40
2019-03-01T18:57:52.404Z,84.20
2019-03-01T19:00:24.415Z,84.80
2019-03-01T19:02:53.871Z,85.00
2019-03-01T19:05:23.205Z,85.10
2019-03-01T19:07:52.539Z,85.90
2019-03-01T19:10:24.002Z,86.70
2019-03-01T19:12:53.187Z,87.00
2019-03-01T19:15:22.594Z,87.90
2019-03-01T19:17:51.928Z,88.10
2019-03-01T19:20:23.096Z,89.20
2019-03-01T19:22:52.426Z,90.20
2019-03-01T19:25:25.137Z,90.50
2019-03-01T19:27:52.914Z,91.40
2019-03-01T19:30:22.586Z,91.70
2019-03-01T19:32:51.975Z,92.10
2019-03-01T19:35:21.296Z,92.60
2019-03-01T19:37:50.791Z,92.30
2019-03-01T19:40:20.271Z,92.00
2019-03-01T19:42:49.599Z,92.30
2019-03-01T19:45:19.213Z,92.30
2019-03-01T19:47:48.641Z,92.80
2019-03-01T19:50:21.680Z,92.50
2019-03-01T19:52:50.683Z,92.40
2019-03-01T19:55:20.110Z,92.30
2019-03-01T19:57:49.501Z,93.20
2019-03-01T20:00:22.928Z,92.90
2019-03-01T20:02:52.253Z,93.10
2019-03-01T20:05:23.290Z,93.40
2019-03-01T20:07:54.778Z,93.40
2019-03-01T20:10:23.713Z,93.60
2019-03-01T20:12:53.077Z,93.50
2019-03-01T20:15:23.219Z,93.40
2019-03-01T20:17:52.607Z,93.20
2019-03-01T20:20:22.384Z,93.00
2019-03-01T20:22:54.324Z,93.20
2019-03-01T20:25:22.766Z,92.60
2019-03-01T20:27:52.102Z,93.00
2019-03-01T20:30:28.697Z,93.30
2019-03-01T20:32:53.871Z,92.60
2019-03-01T20:35:25.703Z,93.20
2019-03-01T20:37:54.732Z,92.80
2019-03-01T20:40:26.691Z,93.20
2019-03-01T20:42:55.878Z,93.50
2019-03-01T20:45:29.880Z,93.30
2019-03-01T20:47:58.649Z,93.00
2019-03-01T20:50:28.162Z,92.70
2019-03-01T20:52:57.990Z,93.40
2019-03-01T20:55:27.312Z,93.50
2019-03-01T20:57:59.829Z,94.00
2019-03-01T21:00:29.841Z,94.60
2019-03-01T21:02:58.915Z,95.10
2019-03-01T21:05:28.950Z,94.90
2019-03-01T21:07:59.278Z,95.10
2019-03-01T21:10:28.876Z,95.30
2019-03-01T21:12:58.321Z,95.70
2019-03-01T21:15:27.710Z,95.90
2019-03-01T21:17:58.665Z,96.50
2019-03-01T21:20:28.224Z,96.70
2019-03-01T21:22:57.622Z,96.80
2019-03-01T21:25:26.954Z,96.90
2019-03-01T21:27:57.687Z,97.50
2019-03-01T21:30:27.674Z,98.10
2019-03-01T21:32:57.083Z,97.90
2019-03-01T21:35:26.486Z,98.40
2019-03-01T21:37:56.019Z,98.60
2019-03-01T21:40:25.346Z,99.10
2019-03-01T21:42:57.389Z,99.30
2019-03-01T21:45:25.727Z,99.40
2019-03-01T21:47:55.050Z,99.80
2019-03-01T21:50:24.398Z,99.90
2019-03-01T21:52:53.729Z,99.90
2019-03-01T21:55:24.994Z,99.90
2019-03-01T21:57:55.143Z,99.90
2019-03-01T22:00:25.257Z,99.90
2019-03-01T22:02:55.720Z,99.90
2019-03-01T22:05:25.149Z,99.90
2019-03-01T22:07:54.478Z,99.90
2019-03-01T22:10:23.799Z,99.90
2019-03-01T22:12:53.120Z,99.90
2019-03-01T22:15:25.386Z,99.90
2019-03-01T22:17:54.676Z,99.90
2019-03-01T22:20:25.275Z,99.90
2019-03-01T22:22:54.594Z,99.90
2019-03-01T22:25:23.942Z,99.90
2019-03-01T22:27:53.274Z,99.90
2019-03-01T22:30:28.097Z,99.90
2019-03-01T22:32:57.490Z,99.90
2019-03-01T22:35:26.830Z,99.90
2019-03-01T22:37:56.143Z,99.90
2019-03-01T22:40:28.015Z,99.90
2019-03-01T22:42:56.520Z,99.90
2019-03-01T22:45:25.846Z,99.90
2019-03-01T22:47:55.180Z,99.90
2019-03-01T22:50:24.500Z,99.90
2019-03-01T22:52:53.840Z,99.90
2019-03-01T22:55:23.269Z,99.90
2019-03-01T22:57:52.638Z,99.90
2019-03-01T23:01:23.819Z,99.90
2019-03-01T23:03:59.367Z,99.90
2019-03-01T23:06:28.686Z,99.90
2019-03-01T23:08:58.007Z,99.90
2019-03-01T23:11:28.717Z,99.90
2019-03-01T23:13:58.396Z,99.90
2019-03-01T23:16:27.786Z,99.90
2019-03-01T23:18:57.141Z,99.90
2019-03-01T23:21:26.500Z,99.90
2019-03-01T23:23:59.516Z,99.90
2019-03-01T23:26:26.886Z,99.90
2019-03-01T23:28:56.248Z,99.90
2019-03-01T23:31:25.574Z,99.90
2019-03-01T23:33:54.898Z,99.90
2019-03-01T23:36:24.856Z,99.90
2019-03-01T23:38:55.342Z,99.90
2019-03-01T23:41:24.659Z,99.90
2019-03-01T23:43:53.985Z,99.90
2019-03-01T23:46:25.707Z,99.90
2019-03-01T23:48:54.358Z,99.90
2019-03-01T23:51:23.683Z,99.90
2019-03-01T23:53:53.002Z,99.90
2019-03-01T23:56:22.325Z,99.90
2019-03-01T23:58:52.778Z,99.90
